Time;durP1;ratioP1;P1;durP2;ratioP2;P2;SDS_P1;SDS_P2;PMS_P1;PMS_P2;Temp;Humidity;BMP_temperature;BMP_pressure;BME280_temperature;BME280_humidity;BME280_pressure;Samples;Min_cycle;Max_cycle;Signal;HPM_P1;HPM_P2
2021/10/22 00:00:53;;;;;;;1.60;0.70;;;16.60;99.90;;;;;;5056512;28;20461;-96
2021/10/22 00:03:20;;;;;;;1.60;0.60;;;16.50;99.90;;;;;;5055910;28;20548;-88
2021/10/22 00:05:46;;;;;;;1.10;0.73;;;16.50;99.90;;;;;;5056590;28;20545;-96
2021/10/22 00:08:12;;;;;;;2.73;0.80;;;16.50;99.90;;;;;;5056563;28;20951;-95
2021/10/22 00:10:41;;;;;;;1.03;0.60;;;16.60;99.90;;;;;;5055495;28;20451;-94
2021/10/22 00:13:09;;;;;;;1.60;0.50;;;16.60;99.90;;;;;;5055454;28;20220;-89
2021/10/22 00:15:35;;;;;;;1.27;1.17;;;16.60;99.90;;;;;;5056894;28;20963;-89
2021/10/22 00:18:01;;;;;;;1.27;0.60;;;16.60;99.90;;;;;;5056848;28;20419;-94
2021/10/22 00:20:28;;;;;;;1.07;0.70;;;16.60;99.90;;;;;;5064391;28;20490;-89
2021/10/22 00:22:54;;;;;;;2.37;1.43;;;16.50;99.90;;;;;;5063214;28;20178;-96
2021/10/22 00:25:22;;;;;;;1.50;0.87;;;16.50;99.90;;;;;;5067569;28;20915;-89
2021/10/22 00:27:49;;;;;;;1.10;0.90;;;16.50;99.90;;;;;;5074070;28;20419;-94
2021/10/22 00:30:15;;;;;;;1.70;0.80;;;16.60;99.90;;;;;;5068823;28;20465;-96
2021/10/22 00:32:43;;;;;;;1.17;0.63;;;16.50;99.90;;;;;;5056022;28;20411;-91
2021/10/22 00:35:09;;;;;;;2.40;2.17;;;16.50;99.90;;;;;;5055200;28;21010;-96
2021/10/22 00:37:35;;;;;;;3.03;1.33;;;16.50;99.90;;;;;;5055849;28;20456;-94
2021/10/22 00:40:03;;;;;;;4.23;1.30;;;16.50;99.90;;;;;;5055063;28;20833;-96
2021/10/22 00:42:30;;;;;;;3.17;1.33;;;16.40;99.90;;;;;;5056851;28;20415;-89
2021/10/22 00:44:58;;;;;;;1.17;1.07;;;16.40;99.90;;;;;;5058014;28;20967;-96
2021/10/22 00:47:26;;;;;;;0.90;0.90;;;16.40;99.90;;;;;;5055449;28;20403;-89
2021/10/22 00:49:52;;;;;;;1.87;0.90;;;16.40;99.90;;;;;;5056216;28;20455;-93
2021/10/22 00:52:24;;;;;;;1.70;0.90;;;16.40;99.90;;;;;;5061947;28;20418;-90
2021/10/22 00:54:51;;;;;;;2.17;1.30;;;16.40;99.90;;;;;;5060842;28;20506;-96
2021/10/22 00:57:17;;;;;;;0.67;0.63;;;16.30;99.90;;;;;;5069205;28;20406;-93
2021/10/22 00:59:46;;;;;;;1.63;1.20;;;16.30;99.90;;;;;;5059596;28;21020;-96
2021/10/22 01:02:14;;;;;;;2.00;1.40;;;16.30;99.90;;;;;;5065181;28;20407;-90
2021/10/22 01:04:41;;;;;;;1.43;1.00;;;16.30;99.90;;;;;;5062190;28;20446;-88
2021/10/22 01:07:07;;;;;;;0.80;0.80;;;16.20;99.90;;;;;;5055524;28;20418;-96
2021/10/22 01:09:33;;;;;;;0.80;0.70;;;16.20;99.90;;;;;;5054457;28;20982;-96
2021/10/22 01:12:01;;;;;;;1.83;0.80;;;16.20;99.90;;;;;;5061299;28;20465;-88
2021/10/22 01:14:28;;;;;;;1.90;0.80;;;16.20;99.90;;;;;;5063004;28;20486;-96
2021/10/22 01:16:55;;;;;;;2.07;1.10;;;16.20;99.90;;;;;;5055240;28;20403;-90
2021/10/22 01:19:26;;;;;;;0.80;0.80;;;16.20;99.90;;;;;;5053679;28;20490;-96
2021/10/22 01:21:58;;;;;;;1.03;0.93;;;16.20;99.90;;;;;;5054448;28;20419;-96
2021/10/22 01:24:25;;;;;;;0.70;0.60;;;16.10;99.90;;;;;;5055719;28;20790;-89
2021/10/22 01:26:51;;;;;;;0.50;0.50;;;16.10;99.90;;;;;;5054679;28;20939;-96
2021/10/22 01:29:17;;;;;;;0.60;0.40;;;16.10;99.90;;;;;;5054706;28;20512;-96
2021/10/22 01:31:44;;;;;;;1.70;0.70;;;16.10;99.90;;;;;;5054283;28;20297;-96
2021/10/22 01:34:12;;;;;;;1.07;0.60;;;16.20;99.90;;;;;;5055275;28;20426;-89
2021/10/22 01:36:39;;;;;;;2.10;1.90;;;16.20;99.90;;;;;;5055295;28;20423;-89
2021/10/22 01:39:05;;;;;;;1.17;0.70;;;16.20;99.90;;;;;;5054737;28;20469;-89
2021/10/22 01:41:31;;;;;;;1.70;0.67;;;16.20;99.90;;;;;;5055275;28;20884;-89
2021/10/22 01:44:01;;;;;;;1.10;0.60;;;16.20;99.90;;;;;;5053614;28;20927;-89
2021/10/22 01:46:29;;;;;;;1.03;0.63;;;16.20;99.90;;;;;;5054873;28;20399;-89
2021/10/22 01:48:56;;;;;;;1.70;0.73;;;16.20;99.90;;;;;;5054407;28;20515;-96
2021/10/22 01:51:23;;;;;;;2.23;0.93;;;16.20;99.90;;;;;;5054030;28;20501;-89
2021/10/22 01:53:49;;;;;;;1.70;0.80;;;16.20;99.90;;;;;;5054173;28;20998;-89
2021/10/22 01:56:15;;;;;;;1.47;0.60;;;16.20;99.90;;;;;;5054813;28;20494;-96
2021/10/22 01:58:41;;;;;;;2.80;0.80;;;16.10;99.90;;;;;;5061829;28;20462;-89
2021/10/22 02:01:08;;;;;;;1.23;0.67;;;16.10;99.90;;;;;;5070294;28;20488;-89
2021/10/22 02:03:34;;;;;;;3.03;0.80;;;16.10;99.90;;;;;;5069551;28;20942;-96
2021/10/22 02:06:01;;;;;;;0.83;0.53;;;16.00;99.90;;;;;;5054047;28;20451;-96
2021/10/22 02:08:30;;;;;;;2.30;0.70;;;15.90;99.90;;;;;;5053678;28;20513;-95
2021/10/22 02:10:57;;;;;;;1.87;1.00;;;15.80;99.90;;;;;;5054229;28;20981;-89
2021/10/22 02:13:24;;;;;;;1.00;0.90;;;15.80;99.90;;;;;;5052982;28;20516;-96
2021/10/22 02:15:50;;;;;;;3.17;0.87;;;15.70;99.90;;;;;;5054559;28;20442;-96
2021/10/22 02:18:16;;;;;;;1.20;0.83;;;15.60;99.90;;;;;;5053164;28;20945;-93
2021/10/22 02:20:43;;;;;;;2.20;0.80;;;15.50;99.90;;;;;;5053346;28;20478;-96
2021/10/22 02:23:09;;;;;;;1.00;0.80;;;15.50;99.90;;;;;;5052903;28;20410;-96
2021/10/22 02:25:36;;;;;;;1.00;0.70;;;15.50;99.90;;;;;;5053409;28;20446;-89
2021/10/22 02:28:04;;;;;;;2.60;1.13;;;15.40;99.90;;;;;;5054161;28;20422;-96
2021/10/22 02:30:31;;;;;;;1.53;1.13;;;15.30;99.90;;;;;;5054287;28;20600;-88
2021/10/22 02:32:57;;;;;;;4.63;2.37;;;15.30;99.90;;;;;;5057106;28;20415;-96
2021/10/22 02:35:23;;;;;;;3.00;2.03;;;15.20;99.90;;;;;;5055963;28;21001;-89
2021/10/22 02:37:49;;;;;;;1.40;1.30;;;15.20;99.90;;;;;;5054490;28;20178;-96
2021/10/22 02:40:16;;;;;;;1.23;1.10;;;15.10;99.90;;;;;;5072807;28;20486;-94
2021/10/22 02:42:44;;;;;;;1.30;1.00;;;15.00;99.90;;;;;;5067299;28;20433;-89
2021/10/22 02:45:10;;;;;;;2.37;1.13;;;15.00;99.90;;;;;;5066315;28;20521;-96
2021/10/22 02:47:37;;;;;;;2.20;1.27;;;14.90;99.90;;;;;;5056085;28;20958;-95
2021/10/22 02:50:07;;;;;;;1.43;1.33;;;14.90;99.90;;;;;;5054214;28;20367;-89
2021/10/22 02:52:33;;;;;;;0.70;0.60;;;14.80;99.90;;;;;;5055454;28;20422;-96
2021/10/22 02:54:59;;;;;;;1.33;0.83;;;14.70;99.90;;;;;;5053967;28;20454;-89
2021/10/22 02:57:26;;;;;;;1.63;0.70;;;14.70;99.90;;;;;;5053673;28;20178;-96
2021/10/22 02:59:52;;;;;;;1.13;0.90;;;14.70;99.90;;;;;;5054037;28;20486;-88
2021/10/22 03:02:19;;;;;;;1.03;0.70;;;14.60;99.90;;;;;;5053859;28;20526;-88
2021/10/22 03:04:47;;;;;;;1.23;1.13;;;14.70;99.90;;;;;;5054276;28;20209;-88
2021/10/22 03:07:14;;;;;;;0.97;0.77;;;14.70;99.90;;;;;;5053485;28;20422;-88
2021/10/22 03:09:40;;;;;;;3.70;1.90;;;14.60;99.90;;;;;;5053049;28;20466;-88
2021/10/22 03:12:07;;;;;;;3.30;2.70;;;14.60;99.90;;;;;;5053393;28;20415;-88
2021/10/22 03:14:33;;;;;;;9.40;6.33;;;14.60;99.90;;;;;;5053632;28;20545;-96
2021/10/22 03:17:03;;;;;;;1.80;1.40;;;14.60;99.90;;;;;;5054962;28;20494;-88
2021/10/22 03:19:30;;;;;;;1.90;1.10;;;14.60;99.90;;;;;;5052394;28;20225;-88
2021/10/22 03:21:56;;;;;;;2.70;2.20;;;14.60;99.90;;;;;;5054435;28;20395;-95
2021/10/22 03:24:23;;;;;;;1.93;1.53;;;14.70;99.90;;;;;;5054978;28;20202;-92
2021/10/22 03:26:50;;;;;;;1.77;1.40;;;14.60;99.90;;;;;;5057133;28;20481;-89
2021/10/22 03:29:16;;;;;;;2.60;1.50;;;14.60;99.90;;;;;;5066069;28;20430;-89
2021/10/22 03:31:43;;;;;;;1.90;1.57;;;14.70;99.90;;;;;;5059058;28;20419;-96
2021/10/22 03:34:09;;;;;;;1.63;1.20;;;14.60;99.90;;;;;;5057780;28;20399;-89
2021/10/22 03:36:36;;;;;;;1.80;0.97;;;14.70;99.90;;;;;;5056060;28;20419;-96
2021/10/22 03:39:05;;;;;;;1.53;1.07;;;14.60;99.90;;;;;;5055908;28;20466;-88
2021/10/22 03:41:31;;;;;;;1.10;0.80;;;14.50;99.90;;;;;;5056259;28;20940;-96
2021/10/22 03:44:00;;;;;;;6.27;1.30;;;14.50;99.90;;;;;;5056351;28;20928;-89
2021/10/22 03:46:26;;;;;;;0.70;0.70;;;14.40;99.90;;;;;;5055752;28;20427;-96
2021/10/22 03:48:52;;;;;;;0.90;0.80;;;14.40;99.90;;;;;;5056277;28;20468;-96
2021/10/22 03:51:20;;;;;;;1.00;0.80;;;14.30;99.90;;;;;;5055471;28;20477;-88
2021/10/22 03:53:46;;;;;;;1.53;0.90;;;14.30;99.90;;;;;;5055739;28;20758;-88
2021/10/22 03:56:13;;;;;;;1.90;0.90;;;14.40;99.90;;;;;;5055178;28;20450;-88
2021/10/22 03:58:39;;;;;;;0.80;0.80;;;14.40;99.90;;;;;;5055738;28;20836;-88
2021/10/22 04:01:05;;;;;;;1.23;1.10;;;14.50;99.90;;;;;;5056924;28;20478;-88
2021/10/22 04:03:32;;;;;;;1.83;1.07;;;14.50;99.90;;;;;;5056522;28;20415;-89
2021/10/22 04:06:01;;;;;;;1.43;1.00;;;14.50;99.90;;;;;;5068392;28;20442;-96
2021/10/22 04:08:29;;;;;;;2.43;0.93;;;14.60;99.90;;;;;;5058133;28;20414;-88
2021/10/22 04:10:55;;;;;;;0.90;0.83;;;14.70;99.90;;;;;;5057725;28;20917;-88
2021/10/22 04:13:23;;;;;;;2.03;0.90;;;14.70;99.90;;;;;;5056867;28;20466;-88
2021/10/22 04:15:49;;;;;;;3.33;2.50;;;14.70;99.90;;;;;;5056948;28;20459;-88
2021/10/22 04:18:16;;;;;;;1.63;0.93;;;14.80;99.90;;;;;;5057798;28;20878;-88
2021/10/22 04:20:42;;;;;;;1.27;1.17;;;14.80;99.90;;;;;;5057568;28;20454;-96
2021/10/22 04:23:09;;;;;;;4.70;1.43;;;14.80;99.90;;;;;;5056535;28;20415;-96
2021/10/22 04:25:35;;;;;;;2.40;0.90;;;14.90;99.90;;;;;;5063126;28;20466;-96
2021/10/22 04:28:03;;;;;;;1.67;1.30;;;14.90;99.90;;;;;;5056702;28;20407;-96
2021/10/22 04:30:31;;;;;;;1.80;1.43;;;14.90;99.90;;;;;;5053352;28;20459;-88
2021/10/22 04:32:56;;;;;;;2.07;1.33;;;14.90;99.90;;;;;;5053753;28;20415;-96
2021/10/22 04:35:23;;;;;;;0.90;0.90;;;14.90;99.90;;;;;;5053573;28;20461;-93
2021/10/22 04:40:33;;;;;;;2.10;1.20;;;14.90;99.90;;;;;;5056552;28;20489;-93
2021/10/22 04:43:11;;;;;;;1.70;1.37;;;14.90;99.90;;;;;;5072530;28;20166;-96
2021/10/22 04:45:40;;;;;;;1.73;1.33;;;14.90;99.90;;;;;;5053301;28;20461;-88
2021/10/22 04:48:07;;;;;;;3.53;1.70;;;14.90;99.90;;;;;;5053513;28;20828;-96
2021/10/22 04:50:45;;;;;;;6.40;3.73;;;14.90;99.90;;;;;;5054445;28;20461;-88
2021/10/22 04:53:16;;;;;;;3.97;2.40;;;14.80;99.90;;;;;;5054666;28;20510;-96
2021/10/22 04:55:42;;;;;;;4.50;1.70;;;14.70;99.90;;;;;;5052801;28;20462;-88
2021/10/22 04:58:09;;;;;;;1.30;0.97;;;14.70;99.90;;;;;;5056852;28;20419;-96
2021/10/22 05:00:36;;;;;;;1.57;0.83;;;14.60;99.90;;;;;;5055661;28;20490;-96
2021/10/22 05:03:03;;;;;;;1.60;0.83;;;14.60;99.90;;;;;;5055288;28;20422;-89
2021/10/22 05:05:29;;;;;;;1.47;1.00;;;14.50;99.90;;;;;;5054200;28;20451;-96
2021/10/22 05:07:55;;;;;;;3.70;1.43;;;14.50;99.90;;;;;;5054934;28;20836;-96
2021/10/22 05:10:22;;;;;;;1.93;1.60;;;14.50;99.90;;;;;;5053313;28;20243;-89
2021/10/22 05:12:48;;;;;;;1.57;1.00;;;14.50;99.90;;;;;;5054111;28;20185;-95
2021/10/22 05:15:14;;;;;;;1.10;1.00;;;14.50;99.90;;;;;;5054871;28;20443;-88
2021/10/22 05:17:40;;;;;;;2.70;2.33;;;14.50;99.90;;;;;;5055264;28;20407;-95
2021/10/22 05:20:09;;;;;;;2.50;2.30;;;14.50;99.90;;;;;;5054516;28;20501;-89
2021/10/22 05:22:38;;;;;;;2.40;1.60;;;14.50;99.90;;;;;;5054601;28;20174;-89
2021/10/22 05:25:09;;;;;;;1.23;1.07;;;14.50;99.90;;;;;;5053632;28;20472;-96
2021/10/22 05:27:38;;;;;;;1.33;1.23;;;14.50;99.90;;;;;;5055082;28;20490;-96
2021/10/22 05:30:06;;;;;;;3.53;1.27;;;14.60;99.90;;;;;;5067418;28;20466;-96
2021/10/22 05:32:32;;;;;;;1.20;1.10;;;14.50;99.90;;;;;;5052254;28;20418;-95
2021/10/22 05:34:59;;;;;;;1.50;1.40;;;14.60;99.90;;;;;;5054056;28;20457;-90
2021/10/22 05:37:26;;;;;;;7.30;2.87;;;14.60;99.90;;;;;;5060233;28;20419;-92
2021/10/22 05:39:51;;;;;;;1.70;1.60;;;14.50;99.90;;;;;;5052661;28;20494;-89
2021/10/22 05:42:21;;;;;;;2.13;1.60;;;14.60;99.90;;;;;;5055598;28;20429;-91
2021/10/22 05:44:47;;;;;;;1.70;1.17;;;14.50;99.90;;;;;;5057607;28;20458;-96
2021/10/22 05:47:15;;;;;;;2.43;1.17;;;14.60;99.90;;;;;;5057756;28;20426;-96
2021/10/22 05:49:43;;;;;;;2.23;1.07;;;14.60;99.90;;;;;;5054077;28;20456;-96
2021/10/22 05:52:10;;;;;;;1.10;1.00;;;14.50;99.90;;;;;;5055302;28;20431;-96
2021/10/22 05:54:37;;;;;;;1.70;1.17;;;14.50;99.90;;;;;;5055683;28;20508;-88
2021/10/22 05:57:03;;;;;;;1.63;1.20;;;14.60;99.90;;;;;;5044602;28;20443;-96
2021/10/22 05:59:29;;;;;;;4.60;2.57;;;14.50;99.90;;;;;;5051694;28;20478;-96
2021/10/22 06:01:56;;;;;;;2.40;1.30;;;14.60;99.90;;;;;;5051755;28;20438;-89
2021/10/22 06:04:22;;;;;;;2.60;1.70;;;14.60;99.90;;;;;;5052445;28;20454;-96
2021/10/22 06:06:49;;;;;;;7.50;3.90;;;14.50;99.90;;;;;;5054069;28;20431;-88
2021/10/22 06:09:15;;;;;;;4.73;3.37;;;14.50;99.90;;;;;;5046832;28;20439;-88
2021/10/22 06:11:41;;;;;;;3.93;2.43;;;14.40;99.90;;;;;;5053987;28;20434;-96
2021/10/22 06:14:09;;;;;;;4.97;1.93;;;14.40;99.90;;;;;;5056748;28;20466;-88
2021/10/22 06:16:35;;;;;;;3.43;2.00;;;14.40;99.90;;;;;;5053566;28;20762;-89
2021/10/22 06:19:03;;;;;;;1.93;1.70;;;14.40;99.90;;;;;;5052163;28;20463;-88
2021/10/22 06:22:18;;;;;;;4.33;2.10;;;14.40;99.90;;;;;;5054823;28;20935;-96
2021/10/22 06:24:19;;;;;;;5.20;1.80;;;14.40;99.90;;;;;;5043942;28;20971;-96
2021/10/22 06:26:47;;;;;;;2.80;1.60;;;14.40;99.90;;;;;;5050734;28;20423;-94
2021/10/22 06:29:13;;;;;;;1.50;1.40;;;14.40;99.90;;;;;;5055053;28;20170;-89
2021/10/22 06:31:41;;;;;;;0.90;0.90;;;14.40;99.90;;;;;;5051353;28;20450;-96
2021/10/22 06:34:08;;;;;;;3.73;1.50;;;14.30;99.90;;;;;;5052687;28;20431;-87
2021/10/22 06:36:36;;;;;;;1.87;1.07;;;14.30;99.90;;;;;;5061707;28;20435;-88
2021/10/22 06:39:04;;;;;;;1.23;1.13;;;14.30;99.90;;;;;;5064351;28;20449;-87
2021/10/22 06:41:30;;;;;;;1.53;1.30;;;14.30;99.90;;;;;;5064655;28;20431;-93
2021/10/22 06:43:56;;;;;;;5.03;1.27;;;14.30;99.90;;;;;;5057655;28;20446;-87
2021/10/22 06:46:23;;;;;;;2.43;1.30;;;14.30;99.90;;;;;;5052691;28;20281;-88
2021/10/22 06:48:49;;;;;;;2.23;1.30;;;14.30;99.90;;;;;;5051799;28;20495;-88
2021/10/22 06:51:17;;;;;;;2.70;1.70;;;14.30;99.90;;;;;;5050944;28;20505;-95
2021/10/22 06:53:43;;;;;;;4.07;1.97;;;14.30;99.90;;;;;;5057860;28;20423;-88
2021/10/22 06:56:09;;;;;;;2.73;2.07;;;14.30;99.90;;;;;;5046505;28;20474;-96
2021/10/22 06:58:35;;;;;;;2.80;1.70;;;14.30;99.90;;;;;;5052393;28;20426;-94
2021/10/22 07:01:02;;;;;;;3.27;1.50;;;14.30;99.90;;;;;;5053254;28;20653;-89
2021/10/22 07:03:38;;;;;;;2.07;1.53;;;14.30;99.90;;;;;;5052590;28;20782;-88
2021/10/22 07:07:14;;;;;;;2.23;1.73;;;14.40;99.90;;;;;;5055717;28;20488;-87
2021/10/22 07:08:52;;;;;;;1.70;1.47;;;14.40;99.90;;;;;;5055285;28;20931;-95
2021/10/22 07:11:19;;;;;;;3.00;2.20;;;14.40;99.90;;;;;;5057160;28;20545;-96
2021/10/22 07:13:55;;;;;;;4.70;1.93;;;14.40;99.90;;;;;;5048729;28;20458;-87
2021/10/22 07:16:25;;;;;;;3.40;2.10;;;14.40;99.90;;;;;;5052739;28;20508;-95
2021/10/22 07:18:51;;;;;;;3.53;2.63;;;14.50;99.90;;;;;;5057830;28;20474;-87
2021/10/22 07:21:18;;;;;;;4.17;2.70;;;14.60;99.90;;;;;;5042795;28;20467;-96
2021/10/22 07:23:47;;;;;;;4.57;2.80;;;14.70;99.90;;;;;;5042470;28;20182;-96
2021/10/22 07:26:14;;;;;;;2.80;2.40;;;14.70;99.90;;;;;;5046178;28;20548;-96
2021/10/22 07:28:41;;;;;;;2.60;2.13;;;14.80;99.90;;;;;;5051115;28;20568;-96
2021/10/22 07:31:10;;;;;;;7.67;4.13;;;14.90;99.90;;;;;;5054809;28;20462;-87
2021/10/22 07:33:40;;;;;;;7.40;5.57;;;15.00;99.90;;;;;;5049022;28;20514;-96
2021/10/22 07:36:14;;;;;;;9.37;8.47;;;15.00;99.90;;;;;;5055947;28;20473;-96
2021/10/22 07:38:43;;;;;;;10.60;6.47;;;15.10;99.90;;;;;;5051233;28;20505;-87
2021/10/22 07:41:12;;;;;;;9.40;5.23;;;15.20;99.90;;;;;;5061793;28;20464;-96
2021/10/22 07:43:39;;;;;;;5.93;5.30;;;15.30;99.90;;;;;;5054894;28;20431;-96
2021/10/22 07:46:05;;;;;;;3.80;3.10;;;15.30;99.90;;;;;;5054622;28;20481;-96
2021/10/22 07:48:35;;;;;;;3.63;3.30;;;15.30;99.90;;;;;;5051013;28;20431;-88
2021/10/22 07:51:04;;;;;;;3.53;2.60;;;15.30;99.90;;;;;;5080259;28;20446;-87
2021/10/22 07:53:31;;;;;;;2.73;2.40;;;15.30;99.90;;;;;;5060659;28;20476;-96
2021/10/22 07:55:59;;;;;;;7.23;2.97;;;15.30;99.90;;;;;;5059305;28;20473;-96
2021/10/22 07:58:29;;;;;;;3.27;2.47;;;15.30;99.90;;;;;;5051078;28;20487;-88
2021/10/22 08:00:57;;;;;;;2.87;2.20;;;15.30;99.90;;;;;;5037518;28;20462;-96
2021/10/22 08:03:25;;;;;;;3.30;2.20;;;15.30;99.90;;;;;;5049758;28;20435;-88
2021/10/22 08:05:52;;;;;;;7.27;2.87;;;15.30;99.90;;;;;;5069811;28;20999;-88
2021/10/22 08:08:19;;;;;;;3.03;2.57;;;15.20;99.90;;;;;;5054434;28;20514;-88
2021/10/22 08:10:46;;;;;;;3.87;2.00;;;15.20;99.90;;;;;;5048612;28;20461;-87
2021/10/22 08:13:13;;;;;;;3.83;2.33;;;15.20;99.90;;;;;;5054271;28;20504;-88
2021/10/22 08:15:42;;;;;;;4.40;4.00;;;15.20;99.90;;;;;;5051070;28;20520;-88
2021/10/22 08:18:13;;;;;;;4.27;2.30;;;15.10;99.90;;;;;;5064977;28;20465;-96
2021/10/22 08:20:56;;;;;;;3.50;2.20;;;15.20;99.90;;;;;;5049884;28;20482;-88
2021/10/22 08:23:23;;;;;;;2.30;2.10;;;15.20;99.90;;;;;;5054044;28;20462;-88
2021/10/22 08:25:51;;;;;;;5.40;2.50;;;15.40;99.90;;;;;;5050992;28;20435;-96
2021/10/22 08:28:18;;;;;;;3.40;2.00;;;15.50;99.90;;;;;;5033901;28;20475;-88
2021/10/22 08:30:46;;;;;;;2.53;2.33;;;15.60;99.90;;;;;;5052156;28;20556;-96
2021/10/22 08:33:14;;;;;;;2.60;2.33;;;15.70;99.90;;;;;;5053592;28;20422;-88
2021/10/22 08:35:49;;;;;;;2.90;2.30;;;15.90;99.90;;;;;;5050619;28;21024;-87
2021/10/22 08:38:17;;;;;;;2.80;2.47;;;16.20;99.90;;;;;;5052713;28;20819;-88
2021/10/22 08:40:48;;;;;;;2.83;1.50;;;16.40;99.90;;;;;;5050125;28;20489;-87
2021/10/22 08:43:16;;;;;;;2.83;2.30;;;16.50;99.90;;;;;;5063597;28;20962;-88
2021/10/22 08:45:46;;;;;;;3.07;1.70;;;16.60;99.90;;;;;;5050746;28;20467;-92
2021/10/22 08:48:16;;;;;;;4.57;1.50;;;16.80;99.90;;;;;;5047489;28;20443;-92
2021/10/22 08:50:51;;;;;;;2.13;1.80;;;16.90;99.90;;;;;;5052367;28;20446;-96
2021/10/22 08:53:40;;;;;;;;;;;;;;;;;;;;;
2021/10/22 08:56:24;;;;;;;4.37;1.80;;;17.50;99.90;;;;;;5059728;28;20553;-90
2021/10/22 08:58:52;;;;;;;1.80;1.40;;;17.80;99.90;;;;;;5058122;22;20489;-72
2021/10/22 09:02:09;;;;;;;4.30;1.97;;;17.90;99.90;;;;;;5028789;28;20432;-74
2021/10/22 09:04:38;;;;;;;4.10;1.40;;;17.90;99.90;;;;;;4930575;29;20280;-72
2021/10/22 09:07:07;;;;;;;1.67;1.30;;;17.80;99.90;;;;;;5015637;28;20514;-72
2021/10/22 09:09:34;;;;;;;1.30;1.03;;;17.80;99.90;;;;;;5030002;28;20453;-70
2021/10/22 09:15:19;;;;;;;3.33;2.37;;;17.70;99.90;;;;;;5014473;28;20447;-69
2021/10/22 09:18:23;;;;;;;4.93;2.10;;;17.60;99.90;;;;;;5043900;28;20432;-71
2021/10/22 09:20:54;;;;;;;2.27;2.07;;;17.50;99.90;;;;;;5016557;28;20507;-70
2021/10/22 09:27:05;;;;;;;1.97;1.80;;;17.30;99.90;;;;;;5615488;22;20821;-70
2021/10/22 09:29:32;;;;;;;3.20;2.50;;;17.30;99.90;;;;;;5061146;28;20452;-69
2021/10/22 09:32:31;;;;;;;3.13;1.27;;;17.30;99.90;;;;;;5052982;28;20441;-69
2021/10/22 09:35:04;;;;;;;2.10;1.40;;;17.20;99.90;;;;;;5060887;28;20444;-70
2021/10/22 09:37:39;;;;;;;1.97;1.40;;;17.20;99.90;;;;;;5058231;28;20430;-70
2021/10/22 09:40:12;;;;;;;2.70;1.77;;;17.30;99.90;;;;;;5056472;28;20905;-70
2021/10/22 09:42:50;;;;;;;4.90;1.57;;;17.30;99.90;;;;;;5042179;28;20441;-69
2021/10/22 09:45:26;;;;;;;1.20;1.00;;;17.30;99.90;;;;;;5068002;28;20726;-71
2021/10/22 09:47:52;;;;;;;2.07;1.47;;;17.20;99.90;;;;;;5065846;28;20441;-71
2021/10/22 09:50:30;;;;;;;1.77;1.07;;;17.20;99.90;;;;;;5070209;28;20425;-70
2021/10/22 09:53:25;;;;;;;1.40;1.30;;;17.20;99.90;;;;;;5062392;28;20441;-69
2021/10/22 09:56:10;;;;;;;3.03;1.17;;;17.20;99.90;;;;;;5084193;28;20445;-69
2021/10/22 09:58:39;;;;;;;2.50;1.50;;;17.30;99.90;;;;;;5060188;28;20453;-71
2021/10/22 10:01:13;;;;;;;2.00;1.20;;;17.30;99.90;;;;;;5064039;28;20786;-69
2021/10/22 10:03:41;;;;;;;2.10;0.90;;;17.20;99.90;;;;;;5065519;28;21350;-69
2021/10/22 10:06:11;;;;;;;1.60;1.23;;;17.20;99.90;;;;;;5081375;28;20808;-70
2021/10/22 10:08:39;;;;;;;4.07;1.50;;;17.20;99.90;;;;;;5065171;28;20505;-70
2021/10/22 10:11:13;;;;;;;2.70;1.23;;;17.20;99.90;;;;;;5064037;28;20442;-70
2021/10/22 10:16:48;;;;;;;3.90;1.50;;;17.30;99.90;;;;;;5187798;22;21314;-69
2021/10/22 10:19:26;;;;;;;2.20;1.73;;;17.30;99.90;;;;;;5046321;28;20501;-69
2021/10/22 10:22:07;;;;;;;4.53;1.93;;;17.40;99.90;;;;;;5042783;28;20457;-70
2021/10/22 10:24:43;;;;;;;1.87;1.50;;;17.40;99.90;;;;;;5052749;28;20457;-69
2021/10/22 10:27:16;;;;;;;2.13;1.13;;;17.50;99.90;;;;;;5038028;28;20438;-69
2021/10/22 10:29:45;;;;;;;1.37;1.00;;;17.60;99.90;;;;;;5046522;28;20962;-69
2021/10/22 10:32:14;;;;;;;1.10;1.00;;;17.60;99.90;;;;;;5045201;28;20458;-70
2021/10/22 10:34:49;;;;;;;1.40;1.30;;;17.70;99.90;;;;;;5049468;28;20454;-69
2021/10/22 10:37:29;;;;;;;2.93;2.43;;;17.70;99.90;;;;;;5051639;28;20457;-69
2021/10/22 10:40:20;;;;;;;2.50;1.97;;;17.80;99.90;;;;;;5044279;28;20569;-69
2021/10/22 10:43:02;;;;;;;3.80;1.63;;;17.80;99.90;;;;;;5066025;28;20419;-69
2021/10/22 10:45:29;;;;;;;2.03;1.77;;;17.80;99.90;;;;;;5035275;28;20455;-69
2021/10/22 10:48:17;;;;;;;3.27;1.30;;;17.80;99.90;;;;;;5045711;28;21002;-69
2021/10/22 10:50:46;;;;;;;2.67;1.40;;;17.80;99.90;;;;;;5044792;28;20833;-70
2021/10/22 10:53:33;;;;;;;1.33;1.23;;;17.80;99.90;;;;;;5048704;28;20430;-69
2021/10/22 10:55:59;;;;;;;1.53;1.37;;;17.80;99.90;;;;;;5051592;28;20469;-69
2021/10/22 10:58:26;;;;;;;2.33;1.60;;;17.70;99.90;;;;;;5044834;28;20429;-69
2021/10/22 11:00:58;;;;;;;1.50;1.40;;;17.70;99.90;;;;;;5055644;28;20687;-69
2021/10/22 11:03:45;;;;;;;2.87;1.40;;;17.70;99.90;;;;;;5046331;28;20517;-69
2021/10/22 11:06:52;;;;;;;2.20;1.17;;;17.70;99.90;;;;;;5048241;28;20544;-69
2021/10/22 11:09:52;;;;;;;7.80;5.60;;;17.70;99.90;;;;;;5044176;28;20926;-69
2021/10/22 11:12:26;;;;;;;3.87;2.10;;;17.70;99.90;;;;;;5036429;28;20456;-71
2021/10/22 11:15:01;;;;;;;2.93;1.40;;;17.80;99.90;;;;;;5208051;22;21238;-70
2021/10/22 11:17:28;;;;;;;2.43;1.30;;;17.70;99.90;;;;;;5002116;28;20596;-70
2021/10/22 11:20:00;;;;;;;1.77;1.00;;;17.70;99.90;;;;;;5005490;28;20483;-70
2021/10/22 11:22:32;;;;;;;2.07;1.50;;;17.80;99.90;;;;;;5007057;28;21212;-69
2021/10/22 11:25:02;;;;;;;1.93;1.73;;;17.70;99.90;;;;;;5008196;28;20461;-70
2021/10/22 11:27:31;;;;;;;3.57;1.70;;;17.70;99.90;;;;;;5009310;28;20948;-69
2021/10/22 11:30:08;;;;;;;4.40;2.90;;;17.70;99.90;;;;;;5012141;28;20546;-73
2021/10/22 11:32:38;;;;;;;3.67;2.17;;;17.60;99.90;;;;;;5021163;28;20174;-71
2021/10/22 11:35:41;;;;;;;1.63;1.50;;;17.60;99.90;;;;;;5012213;28;20468;-71
2021/10/22 11:38:27;;;;;;;1.70;1.43;;;17.50;99.90;;;;;;4988803;28;21071;-70
2021/10/22 11:40:56;;;;;;;2.27;1.60;;;17.50;99.90;;;;;;5002780;28;20505;-70
2021/10/22 11:43:23;;;;;;;4.80;1.57;;;17.50;99.90;;;;;;5008599;28;20428;-70
2021/10/22 11:45:56;;;;;;;3.40;1.50;;;17.50;99.90;;;;;;5004512;28;20542;-70
2021/10/22 11:48:32;;;;;;;2.33;1.70;;;17.50;99.90;;;;;;5009448;28;20420;-70
2021/10/22 11:51:02;;;;;;;1.93;1.70;;;17.50;99.90;;;;;;5007810;28;20946;-71
2021/10/22 11:53:41;;;;;;;2.50;1.53;;;17.60;99.90;;;;;;5010669;28;20663;-70
2021/10/22 11:56:08;;;;;;;1.90;1.30;;;17.60;99.90;;;;;;5014921;28;20446;-70
2021/10/22 11:58:41;;;;;;;2.20;1.40;;;17.60;99.90;;;;;;5011263;28;20423;-70
2021/10/22 12:01:07;;;;;;;3.10;1.47;;;17.60;99.90;;;;;;5008476;28;21116;-70
2021/10/22 12:03:45;;;;;;;1.57;1.47;;;17.60;99.90;;;;;;5008533;28;20443;-70
2021/10/22 12:06:26;;;;;;;3.50;1.80;;;17.60;99.90;;;;;;5011752;28;20813;-70
2021/10/22 12:08:54;;;;;;;1.93;1.33;;;17.70;99.90;;;;;;5012065;28;20987;-72
2021/10/22 12:11:25;;;;;;;2.13;1.40;;;17.70;99.90;;;;;;5013680;28;20434;-71
2021/10/22 12:13:55;;;;;;;1.57;1.10;;;17.70;99.90;;;;;;5012955;28;20488;-72
2021/10/22 12:16:34;;;;;;;2.67;1.10;;;17.70;99.90;;;;;;5012926;28;20502;-70
2021/10/22 12:19:00;;;;;;;2.60;1.50;;;17.70;99.90;;;;;;5017484;28;21147;-71
2021/10/22 12:21:30;;;;;;;2.50;1.87;;;17.70;99.90;;;;;;5025695;28;20834;-71
2021/10/22 12:24:10;;;;;;;2.20;1.30;;;17.70;99.90;;;;;;5022194;28;20423;-70
2021/10/22 12:26:42;;;;;;;3.60;1.30;;;17.70;99.90;;;;;;5014324;28;20439;-70
2021/10/22 12:29:12;;;;;;;1.60;1.40;;;17.70;99.90;;;;;;5009783;28;20782;-71
2021/10/22 12:32:38;;;;;;;2.30;1.30;;;17.70;99.90;;;;;;5015110;28;20423;-71
2021/10/22 12:35:56;;;;;;;2.50;1.80;;;17.70;99.90;;;;;;5029473;28;20509;-71
2021/10/22 12:38:52;;;;;;;10.23;1.40;;;17.70;99.90;;;;;;4999533;28;20534;-71
2021/10/22 12:41:48;;;;;;;2.23;1.30;;;17.70;99.90;;;;;;5002923;28;20482;-71
2021/10/22 12:48:20;;;;;;;2.07;1.50;;;17.80;99.90;;;;;;4982386;28;20428;-71
2021/10/22 12:51:17;;;;;;;2.47;1.27;;;17.80;99.90;;;;;;4963338;28;20532;-70
2021/10/22 12:53:47;;;;;;;1.53;1.30;;;17.90;99.90;;;;;;4997479;28;20475;-70
2021/10/22 12:56:23;;;;;;;1.77;1.47;;;17.80;99.90;;;;;;5012554;28;20976;-70
2021/10/22 12:59:06;;;;;;;4.40;2.60;;;17.80;99.90;;;;;;5022908;28;20451;-70
2021/10/22 13:01:42;;;;;;;1.20;1.10;;;17.80;99.90;;;;;;5005025;28;20761;-70
2021/10/22 13:04:13;;;;;;;1.97;1.40;;;17.80;99.90;;;;;;5006316;28;20447;-69
2021/10/22 13:20:23;;;;;;;1.47;1.20;;;17.80;99.90;;;;;;5016922;28;20822;-70
2021/10/22 13:20:39;;;;;;;3.23;1.30;;;17.90;99.90;;;;;;5011965;28;20486;-70
2021/10/22 13:23:17;;;;;;;1.10;1.00;;;17.90;99.90;;;;;;5012302;28;20435;-70
2021/10/22 13:25:48;;;;;;;2.53;1.10;;;17.90;99.90;;;;;;5012067;28;20457;-70
2021/10/22 13:28:22;;;;;;;1.83;1.70;;;17.90;99.90;;;;;;5010538;28;20512;-70
2021/10/22 13:31:13;;;;;;;4.43;1.73;;;18.00;99.90;;;;;;5011290;28;20443;-70
2021/10/22 13:33:39;;;;;;;1.67;1.17;;;18.00;99.90;;;;;;5028702;28;20416;-69